createdAt,value
2022-09-22T00:01:57.240Z,100865.03
2022-09-22T00:06:00.939Z,100850.19
2022-09-22T00:10:02.636Z,100852.09
2022-09-22T00:14:13.057Z,100858.47
2022-09-22T00:18:14.765Z,100852.72
2022-09-22T00:22:16.459Z,100859.94
2022-09-22T00:26:21.795Z,100855.69
2022-09-22T00:30:24.239Z,100856.81
2022-09-22T00:34:26.723Z,100847.31
2022-09-22T00:38:29.192Z,100844.94
2022-09-22T00:42:30.858Z,100865.56
2022-09-22T00:46:32.608Z,100853.81
2022-09-22T00:50:34.449Z,100865.97
2022-09-22T00:54:36.193Z,100866.75
2022-09-22T00:58:54.498Z,100876.78
2022-09-22T01:02:58.086Z,100878.78
2022-09-22T01:06:59.921Z,100856.09
2022-09-22T01:11:01.637Z,100866.56
2022-09-22T01:15:41.070Z,100867.50
2022-09-22T01:20:04.648Z,100863.84
2022-09-22T01:24:24.322Z,100857.88
2022-09-22T01:28:56.110Z,100868.38
2022-09-22T01:33:12.382Z,100872.66
2022-09-22T01:37:29.845Z,100871.69
2022-09-22T01:42:07.165Z,100871.44
2022-09-22T01:46:34.283Z,100863.28
2022-09-22T01:50:46.807Z,100864.00
2022-09-22T01:55:23.799Z,100862.81
2022-09-22T01:59:28.452Z,100853.19
2022-09-22T02:03:40.952Z,100856.06
2022-09-22T02:07:47.579Z,100843.84
2022-09-22T02:11:56.914Z,100848.31
2022-09-22T02:16:07.752Z,100850.81
2022-09-22T02:20:16.700Z,100850.69
2022-09-22T02:24:32.400Z,100857.97
2022-09-22T02:28:37.837Z,100847.28
2022-09-22T02:32:42.821Z,100855.81
2022-09-22T02:37:04.125Z,100852.44
2022-09-22T02:41:18.732Z,100847.25
2022-09-22T02:45:26.706Z,100842.63
2022-09-22T02:49:28.547Z,100849.84
2022-09-22T02:53:30.692Z,100835.84
2022-09-22T02:57:32.425Z,100846.28
2022-09-22T03:01:34.202Z,100831.44
2022-09-22T03:05:36.081Z,100827.53
2022-09-22T03:09:37.969Z,100832.13
2022-09-22T03:13:39.722Z,100833.78
2022-09-22T03:17:41.801Z,100826.22
2022-09-22T03:21:43.955Z,100813.13
2022-09-22T03:25:45.727Z,100827.47
2022-09-22T03:29:47.465Z,100817.75
2022-09-22T03:33:52.556Z,100833.50
2022-09-22T03:37:54.614Z,100843.09
2022-09-22T03:41:56.327Z,100829.91
2022-09-22T03:45:59.238Z,100837.03
2022-09-22T03:50:01.151Z,100835.00
2022-09-22T03:54:02.931Z,100830.03
2022-09-22T03:58:04.791Z,100825.03
2022-09-22T04:02:06.800Z,100824.94
2022-09-22T04:06:08.710Z,100816.16
2022-09-22T04:10:10.381Z,100824.25
2022-09-22T04:14:12.408Z,100815.53
2022-09-22T04:18:14.537Z,100822.56
2022-09-22T04:22:16.415Z,100822.25
2022-09-22T04:26:18.201Z,100835.41
2022-09-22T04:30:19.866Z,100834.59
2022-09-22T04:34:34.677Z,100823.75
2022-09-22T04:38:36.770Z,100839.16
2022-09-22T04:42:42.104Z,100829.97
2022-09-22T04:46:47.025Z,100811.94
2022-09-22T04:50:48.902Z,100821.31
2022-09-22T04:54:50.985Z,100807.56
2022-09-22T04:58:52.732Z,100820.06
2022-09-22T05:02:54.898Z,100825.56
2022-09-22T05:06:56.841Z,100824.34
2022-09-22T05:11:00.136Z,100844.34
2022-09-22T05:15:04.839Z,100865.63
2022-09-22T05:19:06.643Z,100860.59
2022-09-22T05:23:08.376Z,100862.91
2022-09-22T05:27:10.093Z,100859.78
2022-09-22T05:31:12.051Z,100861.34
2022-09-22T05:35:15.768Z,100854.41
2022-09-22T05:39:17.574Z,100856.53
2022-09-22T05:43:19.326Z,100846.06
2022-09-22T05:47:21.053Z,100827.75
2022-09-22T05:51:22.817Z,100805.72
2022-09-22T05:55:24.594Z,100801.31
2022-09-22T05:59:26.316Z,100793.53
2022-09-22T06:03:28.235Z,100798.97
2022-09-22T06:07:30.072Z,100780.59
2022-09-22T06:11:31.864Z,100772.56
2022-09-22T06:15:36.694Z,100779.72
2022-09-22T06:19:39.262Z,100770.16
2022-09-22T06:23:43.009Z,100775.72
2022-09-22T06:27:45.071Z,100762.81
2022-09-22T06:31:48.879Z,100778.69
2022-09-22T06:35:50.741Z,100789.84
2022-09-22T06:39:52.596Z,100788.44
2022-09-22T06:43:57.385Z,100788.66
2022-09-22T06:47:59.529Z,100784.97
2022-09-22T06:52:01.643Z,100777.25
2022-09-22T06:56:05.961Z,100766.63
2022-09-22T07:00:08.827Z,100771.44
2022-09-22T07:04:11.772Z,100772.41
2022-09-22T07:08:14.841Z,100777.13
2022-09-22T07:12:21.460Z,100782.00
2022-09-22T07:16:24.985Z,100776.88
2022-09-22T07:20:26.822Z,100776.00
2022-09-22T07:24:28.607Z,100770.75
2022-09-22T07:28:33.020Z,100770.66
2022-09-22T07:32:35.202Z,100771.13
2022-09-22T07:36:37.208Z,100781.53
2022-09-22T07:40:39.090Z,100779.03
2022-09-22T07:44:59.258Z,100774.00
2022-09-22T07:49:01.147Z,100769.72
2022-09-22T07:53:04.208Z,100774.13
2022-09-22T07:57:06.680Z,100782.78
2022-09-22T08:01:12.261Z,100775.09
2022-09-22T08:05:16.462Z,100773.69
2022-09-22T08:09:18.691Z,100784.72
2022-09-22T08:13:21.924Z,100757.19
2022-09-22T08:17:29.769Z,100776.50
2022-09-22T08:21:47.706Z,100794.84
2022-09-22T08:25:50.791Z,100784.22
2022-09-22T08:29:53.135Z,100784.66
2022-09-22T08:33:55.612Z,100789.75
2022-09-22T08:37:57.446Z,100777.16
2022-09-22T08:42:09.448Z,100772.69
2022-09-22T08:46:11.311Z,100781.31
2022-09-22T08:51:03.359Z,100769.03
2022-09-22T08:55:07.577Z,100773.63
2022-09-22T08:59:23.912Z,100774.97
2022-09-22T09:03:54.883Z,100773.13
2022-09-22T09:08:30.354Z,100776.56
2022-09-22T09:12:53.476Z,100782.16
2022-09-22T09:17:15.125Z,100770.84
2022-09-22T09:21:17.048Z,100771.53
2022-09-22T09:25:38.601Z,100775.75
2022-09-22T09:29:51.536Z,100770.22
2022-09-22T09:34:08.845Z,100771.22
2022-09-22T09:38:16.171Z,100773.78
2022-09-22T09:42:31.687Z,100776.13
2022-09-22T09:47:02.161Z,100758.03
2022-09-22T09:51:05.264Z,100768.28
2022-09-22T09:55:27.250Z,100763.66
2022-09-22T09:59:48.169Z,100767.63
2022-09-22T10:03:54.880Z,100752.75
2022-09-22T10:08:13.959Z,100758.03
2022-09-22T10:12:28.500Z,100752.44
2022-09-22T10:16:31.687Z,100747.41
2022-09-22T10:20:36.407Z,100742.38
2022-09-22T10:24:38.174Z,100721.09
2022-09-22T10:28:39.950Z,100734.13
2022-09-22T10:32:42.509Z,100724.56
2022-09-22T10:36:44.709Z,100732.59
2022-09-22T10:40:58.343Z,100725.28
2022-09-22T10:45:09.959Z,100722.63
2022-09-22T10:49:54.662Z,100730.97
2022-09-22T10:54:30.060Z,100721.22
2022-09-22T10:58:59.453Z,100712.84
2022-09-22T11:03:50.207Z,100719.13
2022-09-22T11:08:16.544Z,100718.81
2022-09-22T11:12:59.801Z,100717.13
2022-09-22T11:17:39.123Z,100712.72
2022-09-22T11:22:40.720Z,100704.28
2022-09-22T11:26:52.359Z,100698.31
2022-09-22T11:30:54.780Z,100713.50
2022-09-22T11:35:39.849Z,100699.63
2022-09-22T11:39:53.570Z,100695.84
2022-09-22T11:44:20.212Z,100689.75
2022-09-22T11:49:02.584Z,100685.72
2022-09-22T11:53:49.572Z,100686.66
2022-09-22T11:57:56.984Z,100672.34
2022-09-22T12:02:04.058Z,100666.84
2022-09-22T12:06:16.202Z,100658.03
2022-09-22T12:10:28.593Z,100657.06
2022-09-22T12:14:30.584Z,100643.88
2022-09-22T12:19:05.707Z,100643.91
2022-09-22T12:23:10.531Z,100649.66
2022-09-22T12:27:27.419Z,100635.84
2022-09-22T12:31:42.076Z,100638.59
2022-09-22T12:35:53.336Z,100642.91
2022-09-22T12:40:30.718Z,100651.91
2022-09-22T12:44:37.442Z,100634.84
2022-09-22T12:48:39.318Z,100637.88
2022-09-22T12:52:41.045Z,100632.66
2022-09-22T12:56:46.457Z,100626.56
2022-09-22T13:00:52.856Z,100639.94
2022-09-22T13:04:55.109Z,100627.03
2022-09-22T13:09:01.069Z,100626.28
2022-09-22T13:13:05.922Z,100629.31
2022-09-22T13:17:41.399Z,100622.16
2022-09-22T13:21:43.274Z,100613.50
2022-09-22T13:25:45.010Z,100616.19
2022-09-22T13:29:59.219Z,100621.66
2022-09-22T13:34:16.764Z,100616.59
2022-09-22T13:38:18.870Z,100614.19
2022-09-22T13:42:31.356Z,100596.16
2022-09-22T13:46:39.443Z,100605.72
2022-09-22T13:51:02.186Z,100597.50
2022-09-22T13:55:12.951Z,100597.13
2022-09-22T13:59:14.728Z,100600.56
2022-09-22T14:03:23.546Z,100598.69
2022-09-22T14:07:30.760Z,100575.78
2022-09-22T14:11:32.616Z,100584.09
2022-09-22T14:15:37.454Z,100586.72
2022-09-22T14:20:06.206Z,100580.47
2022-09-22T14:24:08.021Z,100569.75
2022-09-22T14:28:22.357Z,100583.00
2022-09-22T14:32:35.025Z,100572.31
2022-09-22T14:36:39.412Z,100580.34
2022-09-22T14:40:54.479Z,100573.19
2022-09-22T14:45:08.643Z,100564.56
2022-09-22T14:49:36.426Z,100573.91
2022-09-22T14:54:03.885Z,100571.84
2022-09-22T14:58:17.014Z,100572.91
2022-09-22T15:02:33.771Z,100569.75
2022-09-22T15:06:39.708Z,100569.38
2022-09-22T15:10:41.490Z,100571.75
2022-09-22T15:14:44.295Z,100564.84
2022-09-22T15:18:46.990Z,100566.47
2022-09-22T15:22:49.039Z,100551.00
2022-09-22T15:26:50.752Z,100562.19
2022-09-22T15:30:52.774Z,100568.31
2022-09-22T15:34:55.124Z,100558.09
2022-09-22T15:39:19.693Z,100567.09
2022-09-22T15:43:23.237Z,100570.13
2022-09-22T15:47:25.845Z,100563.81
2022-09-22T15:51:27.571Z,100571.44
2022-09-22T15:55:29.326Z,100569.97
2022-09-22T15:59:32.466Z,100557.72
2022-09-22T16:03:40.228Z,100555.09
2022-09-22T16:07:48.486Z,100554.28
2022-09-22T16:11:50.566Z,100549.31
2022-09-22T16:15:52.540Z,100553.25
2022-09-22T16:19:54.285Z,100528.56
2022-09-22T16:24:01.667Z,100538.13
2022-09-22T16:28:07.518Z,100553.84
2022-09-22T16:32:11.525Z,100541.34
2022-09-22T16:36:13.546Z,100552.69
2022-09-22T16:40:15.575Z,100543.28
2022-09-22T16:44:24.113Z,100550.50
2022-09-22T16:48:35.479Z,100549.88
2022-09-22T16:52:39.987Z,100543.91
2022-09-22T16:56:44.265Z,100557.88
2022-09-22T17:00:46.087Z,100548.66
2022-09-22T17:04:50.923Z,100550.34
2022-09-22T17:08:58.692Z,100548.47
2022-09-22T17:13:06.524Z,100548.88
2022-09-22T17:17:11.827Z,100571.63
2022-09-22T17:21:14.134Z,100566.78
2022-09-22T17:25:17.350Z,100561.09
2022-09-22T17:29:31.443Z,100568.91
2022-09-22T17:33:36.354Z,100571.63
2022-09-22T17:37:39.202Z,100561.09
2022-09-22T17:41:47.171Z,100571.16
2022-09-22T17:45:52.595Z,100563.19
2022-09-22T17:50:12.778Z,100581.56
2022-09-22T17:54:41.950Z,100576.94
2022-09-22T17:58:43.673Z,100573.28
2022-09-22T18:02:45.524Z,100582.00
2022-09-22T18:06:48.602Z,100583.47
2022-09-22T18:10:54.473Z,100587.91
2022-09-22T18:14:56.322Z,100591.09
2022-09-22T18:18:58.156Z,100589.75
2022-09-22T18:23:01.511Z,100588.09
2022-09-22T18:27:04.302Z,100594.03
2022-09-22T18:31:06.175Z,100595.59
2022-09-22T18:35:10.265Z,100609.53
2022-09-22T18:39:12.319Z,100585.31
2022-09-22T18:43:14.239Z,100594.94
2022-09-22T18:47:18.562Z,100599.38
2022-09-22T18:51:20.510Z,100599.81
2022-09-22T18:55:22.373Z,100602.41
2022-09-22T18:59:26.402Z,100608.63
2022-09-22T19:03:28.375Z,100606.41
2022-09-22T19:07:42.529Z,100597.59
2022-09-22T19:11:46.975Z,100610.78
2022-09-22T19:15:54.079Z,100612.31
2022-09-22T19:19:58.283Z,100600.47
2022-09-22T19:24:01.105Z,100607.38
2022-09-22T19:28:06.688Z,100608.56
2022-09-22T19:32:08.932Z,100598.72
2022-09-22T19:36:13.480Z,100604.91
2022-09-22T19:40:18.983Z,100604.09
2022-09-22T19:44:21.913Z,100601.06
2022-09-22T19:48:26.092Z,100606.28
2022-09-22T19:52:29.122Z,100603.66
2022-09-22T19:56:30.931Z,100604.19
2022-09-22T20:00:41.814Z,100616.81
2022-09-22T20:04:43.640Z,100612.13
2022-09-22T20:08:48.338Z,100602.69
2022-09-22T20:12:51.401Z,100612.88
2022-09-22T20:16:54.045Z,100624.25
2022-09-22T20:20:56.448Z,100615.16
2022-09-22T20:25:01.813Z,100620.47
2022-09-22T20:29:06.560Z,100612.22
2022-09-22T20:33:23.313Z,100623.25
2022-09-22T20:37:28.141Z,100621.22
2022-09-22T20:41:33.548Z,100633.09
2022-09-22T20:45:35.668Z,100621.91
2022-09-22T20:49:37.591Z,100622.63
2022-09-22T20:53:40.209Z,100629.38
2022-09-22T20:57:42.763Z,100629.06
2022-09-22T21:01:50.876Z,100619.16
2022-09-22T21:05:52.794Z,100613.78
2022-09-22T21:10:12.973Z,100631.84
2022-09-22T21:14:15.473Z,100633.06
2022-09-22T21:18:17.814Z,100623.38
2022-09-22T21:22:19.626Z,100625.28
2022-09-22T21:26:23.804Z,100625.50
2022-09-22T21:30:37.371Z,100624.53
2022-09-22T21:34:40.396Z,100626.69
2022-09-22T21:38:46.516Z,100630.16
2022-09-22T21:42:51.880Z,100609.72
2022-09-22T21:46:54.259Z,100627.06
2022-09-22T21:51:02.158Z,100631.13
2022-09-22T21:55:04.581Z,100621.97
2022-09-22T21:59:06.355Z,100633.97
2022-09-22T22:03:26.349Z,100634.31
2022-09-22T22:07:28.001Z,100633.00
2022-09-22T22:11:57.140Z,100625.91
2022-09-22T22:15:59.803Z,100625.56
2022-09-22T22:20:01.985Z,100626.91
2022-09-22T22:24:23.176Z,100630.38
2022-09-22T22:28:25.267Z,100619.63
2022-09-22T22:32:27.061Z,100619.09
2022-09-22T22:36:28.790Z,100623.13
2022-09-22T22:40:32.204Z,100614.97
2022-09-22T22:44:35.129Z,100610.34
2022-09-22T22:48:37.282Z,100613.75
2022-09-22T22:52:41.335Z,100615.16
2022-09-22T22:56:45.063Z,100617.78
2022-09-22T23:00:49.741Z,100621.22
2022-09-22T23:04:52.170Z,100615.84
2022-09-22T23:08:54.199Z,100605.53
2022-09-22T23:12:56.679Z,100613.59
2022-09-22T23:16:58.465Z,100623.56
2022-09-22T23:21:00.445Z,100611.69
2022-09-22T23:25:02.601Z,100602.22
2022-09-22T23:29:04.996Z,100597.63
2022-09-22T23:33:07.092Z,100598.00
2022-09-22T23:37:09.065Z,100592.31
2022-09-22T23:41:46.461Z,100583.06
2022-09-22T23:46:14.619Z,100577.81
2022-09-22T23:51:24.541Z,100577.94
2022-09-22T23:55:26.335Z,100582.38
2022-09-22T23:59:31.054Z,100573.38
